This is the latest recevied weather packets stored in our database for station/object URMM. If no packets are shown the sender has not sent any weather packets the latest 10 day(s).
| Time | Temp. | Humidity | Pressure | Rain* | Wind** | Luminosity | Snow |
|---|---|---|---|---|---|---|---|
| 1777577454 | 10.56° C | 71% | 1019 hPa | - | - | - | - |
| 1777575656 | 10.56° C | 71% | 1019 hPa | - | - | - | - |
| 1777573856 | 10.56° C | 71% | 1019 hPa | - | - | - | - |
| 1777572058 | 11.67° C | 66% | 1019 hPa | - | - | - | - |
| 1777570254 | 12.78° C | 66% | 1018 hPa | - | - | - | - |
| 1777568455 | 13.89° C | 67% | 1018 hPa | - | - | - | - |
| 1777566654 | 13.89° C | 67% | 1018 hPa | - | - | - | - |
| 1777564858 | 15° C | 58% | 1017 hPa | - | - | - | - |
| 1777561254 | 15° C | 67% | 1017 hPa | - | - | - | - |
| 1777559455 | 15° C | 58% | 1018 hPa | - | - | - | - |
| 1777557654 | 15° C | 58% | 1017 hPa | - | - | - | - |
| 1777555858 | 15.56° C | 55% | 1017 hPa | - | - | - | - |
| 1777554054 | 16.67° C | 48% | 1017 hPa | - | - | - | - |
| 1777552255 | 16.67° C | 45% | 1017 hPa | - | - | - | - |
| 1777550456 | 16.67° C | 45% | 1017 hPa | - | - | - | - |
| 1777548657 | 16.67° C | 48% | 1017 hPa | - | - | - | - |
| 1777546855 | 17.78° C | 42% | 1017 hPa | - | - | - | - |
| 1777545055 | 16.67° C | 48% | 1017 hPa | - | - | - | - |
| 1777543254 | 16.67° C | 48% | 1018 hPa | - | - | - | - |
| 1777541455 | 16.67° C | 51% | 1018 hPa | - | - | - | - |
| 1777539654 | 15.56° C | 55% | 1018 hPa | - | - | - | - |
| 1777536058 | 15° C | 54% | 1018 hPa | - | - | - | - |
| 1777534254 | 15° C | 54% | 1019 hPa | - | - | - | - |
| 1777532455 | 13.89° C | 58% | 1019 hPa | - | - | - | - |
| 1777530655 | 13.89° C | 58% | 1019 hPa | - | - | - | - |
* Rain since midnight (hover to see other rain measurements)
** Current wind speed in m/s (hover to see current wind gust speed)